sensor_id;sensor_type;location;lat;lon;timestamp;pressure;altitude;pressure_sealevel;temperature;humidity
15998;BME280;8103;51.340;12.326;2022-10-26T00:01:19;100505.19;;;11.94;nan
15998;BME280;8103;51.340;12.326;2022-10-26T00:03:46;100507.06;;;11.94;nan
15998;BME280;8103;51.340;12.326;2022-10-26T00:06:20;100500.09;;;11.93;nan
15998;BME280;8103;51.340;12.326;2022-10-26T00:08:48;100507.56;;;11.91;nan
15998;BME280;8103;51.340;12.326;2022-10-26T00:11:16;100505.38;;;11.88;nan
15998;BME280;8103;51.340;12.326;2022-10-26T00:13:45;100508.56;;;11.85;nan
15998;BME280;8103;51.340;12.326;2022-10-26T00:16:22;100510.72;;;11.83;nan
15998;BME280;8103;51.340;12.326;2022-10-26T00:18:50;100506.69;;;11.80;nan
15998;BME280;8103;51.340;12.326;2022-10-26T00:21:17;100506.34;;;11.77;nan
15998;BME280;8103;51.340;12.326;2022-10-26T00:23:44;100507.69;;;11.74;nan
15998;BME280;8103;51.340;12.326;2022-10-26T00:26:12;100510.63;;;11.73;nan
15998;BME280;8103;51.340;12.326;2022-10-26T00:28:39;100513.72;;;11.65;nan
15998;BME280;8103;51.340;12.326;2022-10-26T00:31:15;100512.13;;;11.64;nan
15998;BME280;8103;51.340;12.326;2022-10-26T00:33:43;100506.41;;;11.60;nan
15998;BME280;8103;51.340;12.326;2022-10-26T00:36:10;100513.09;;;11.58;nan
15998;BME280;8103;51.340;12.326;2022-10-26T00:38:39;100515.19;;;11.56;nan
15998;BME280;8103;51.340;12.326;2022-10-26T00:41:19;100511.47;;;11.57;nan
15998;BME280;8103;51.340;12.326;2022-10-26T00:43:47;100508.22;;;11.55;nan
15998;BME280;8103;51.340;12.326;2022-10-26T00:46:25;100516.03;;;11.56;nan
15998;BME280;8103;51.340;12.326;2022-10-26T00:48:59;100508.22;;;11.55;nan
15998;BME280;8103;51.340;12.326;2022-10-26T00:51:37;100514.91;;;11.52;nan
15998;BME280;8103;51.340;12.326;2022-10-26T00:54:11;100516.19;;;11.50;nan
15998;BME280;8103;51.340;12.326;2022-10-26T00:56:39;100515.66;;;11.48;nan
15998;BME280;8103;51.340;12.326;2022-10-26T00:59:12;100512.66;;;11.44;nan
15998;BME280;8103;51.340;12.326;2022-10-26T01:01:44;100512.09;;;11.42;nan
15998;BME280;8103;51.340;12.326;2022-10-26T01:04:14;100509.66;;;11.41;nan
15998;BME280;8103;51.340;12.326;2022-10-26T01:06:42;100511.84;;;11.44;nan
15998;BME280;8103;51.340;12.326;2022-10-26T01:09:09;100510.22;;;11.43;nan
15998;BME280;8103;51.340;12.326;2022-10-26T01:11:37;100506.72;;;11.42;nan
15998;BME280;8103;51.340;12.326;2022-10-26T01:14:08;100507.53;;;11.43;nan
15998;BME280;8103;51.340;12.326;2022-10-26T01:17:17;100504.84;;;11.43;nan
15998;BME280;8103;51.340;12.326;2022-10-26T01:20:41;100509.09;;;11.39;nan
15998;BME280;8103;51.340;12.326;2022-10-26T01:29:13;100505.53;;;11.33;nan
15998;BME280;8103;51.340;12.326;2022-10-26T01:31:58;100508.75;;;11.35;nan
15998;BME280;8103;51.340;12.326;2022-10-26T01:34:35;100504.22;;;11.36;nan
15998;BME280;8103;51.340;12.326;2022-10-26T01:37:18;100502.59;;;11.35;nan
15998;BME280;8103;51.340;12.326;2022-10-26T01:39:59;100500.16;;;11.33;nan
15998;BME280;8103;51.340;12.326;2022-10-26T01:42:30;100503.09;;;11.32;nan
15998;BME280;8103;51.340;12.326;2022-10-26T01:45:05;100493.97;;;11.33;nan
15998;BME280;8103;51.340;12.326;2022-10-26T01:47:37;100493.97;;;11.33;nan
15998;BME280;8103;51.340;12.326;2022-10-26T01:50:06;100489.69;;;11.32;nan
15998;BME280;8103;51.340;12.326;2022-10-26T01:52:34;100483.75;;;11.30;nan
15998;BME280;8103;51.340;12.326;2022-10-26T01:57:52;100487.50;;;11.29;nan
15998;BME280;8103;51.340;12.326;2022-10-26T02:00:20;100477.78;;;11.28;nan
15998;BME280;8103;51.340;12.326;2022-10-26T02:06:25;100478.56;;;11.23;nan
15998;BME280;8103;51.340;12.326;2022-10-26T02:09:38;100476.13;;;11.22;nan
15998;BME280;8103;51.340;12.326;2022-10-26T02:12:40;100480.94;;;11.20;nan
15998;BME280;8103;51.340;12.326;2022-10-26T02:15:22;100476.06;;;11.17;nan
15998;BME280;8103;51.340;12.326;2022-10-26T02:18:09;100479.56;;;11.17;nan
15998;BME280;8103;51.340;12.326;2022-10-26T02:20:48;100473.38;;;11.17;nan
15998;BME280;8103;51.340;12.326;2022-10-26T02:23:18;100472.25;;;11.13;nan
15998;BME280;8103;51.340;12.326;2022-10-26T02:25:54;100478.66;;;11.12;nan
15998;BME280;8103;51.340;12.326;2022-10-26T02:28:29;100470.06;;;11.10;nan
15998;BME280;8103;51.340;12.326;2022-10-26T02:31:00;100480.22;;;11.08;nan
15998;BME280;8103;51.340;12.326;2022-10-26T02:33:35;100481.84;;;11.09;nan
15998;BME280;8103;51.340;12.326;2022-10-26T02:36:08;100475.44;;;11.10;nan
15998;BME280;8103;51.340;12.326;2022-10-26T02:38:40;100477.03;;;11.11;nan
15998;BME280;8103;51.340;12.326;2022-10-26T02:41:11;100475.19;;;11.11;nan
15998;BME280;8103;51.340;12.326;2022-10-26T02:43:51;100476.56;;;11.14;nan
15998;BME280;8103;51.340;12.326;2022-10-26T02:46:21;100473.06;;;11.13;nan
15998;BME280;8103;51.340;12.326;2022-10-26T02:48:51;100475.47;;;11.15;nan
15998;BME280;8103;51.340;12.326;2022-10-26T02:55:03;100482.50;;;11.16;nan
15998;BME280;8103;51.340;12.326;2022-10-26T02:57:42;100470.69;;;11.17;nan
15998;BME280;8103;51.340;12.326;2022-10-26T03:00:16;100474.69;;;11.14;nan
15998;BME280;8103;51.340;12.326;2022-10-26T03:02:50;100466.91;;;11.13;nan
15998;BME280;8103;51.340;12.326;2022-10-26T03:05:22;100463.97;;;11.14;nan
15998;BME280;8103;51.340;12.326;2022-10-26T03:07:55;100466.91;;;11.13;nan
15998;BME280;8103;51.340;12.326;2022-10-26T03:10:26;100464.22;;;11.13;nan
15998;BME280;8103;51.340;12.326;2022-10-26T03:12:54;100465.25;;;11.12;nan
15998;BME280;8103;51.340;12.326;2022-10-26T03:15:21;100465.50;;;11.10;nan
15998;BME280;8103;51.340;12.326;2022-10-26T03:17:48;100469.50;;;11.08;nan
15998;BME280;8103;51.340;12.326;2022-10-26T03:20:15;100466.75;;;11.03;nan
15998;BME280;8103;51.340;12.326;2022-10-26T03:22:42;100466.75;;;11.03;nan
15998;BME280;8103;51.340;12.326;2022-10-26T03:25:10;100458.63;;;10.98;nan
15998;BME280;8103;51.340;12.326;2022-10-26T03:27:37;100461.56;;;10.96;nan
15998;BME280;8103;51.340;12.326;2022-10-26T03:30:04;100451.31;;;10.93;nan
15998;BME280;8103;51.340;12.326;2022-10-26T03:32:32;100447.81;;;10.93;nan
15998;BME280;8103;51.340;12.326;2022-10-26T03:34:59;100452.69;;;10.96;nan
15998;BME280;8103;51.340;12.326;2022-10-26T03:37:26;100453.19;;;10.93;nan
15998;BME280;8103;51.340;12.326;2022-10-26T03:39:53;100455.31;;;10.91;nan
15998;BME280;8103;51.340;12.326;2022-10-26T03:42:20;100446.44;;;10.90;nan
15998;BME280;8103;51.340;12.326;2022-10-26T03:44:47;100450.22;;;10.89;nan
15998;BME280;8103;51.340;12.326;2022-10-26T03:47:15;100442.16;;;10.89;nan
15998;BME280;8103;51.340;12.326;2022-10-26T03:49:42;100446.44;;;10.90;nan
15998;BME280;8103;51.340;12.326;2022-10-26T03:52:09;100442.41;;;10.88;nan
15998;BME280;8103;51.340;12.326;2022-10-26T03:54:36;100437.03;;;10.88;nan
15998;BME280;8103;51.340;12.326;2022-10-26T03:57:03;100438.66;;;10.89;nan
15998;BME280;8103;51.340;12.326;2022-10-26T03:59:30;100438.41;;;10.90;nan
15998;BME280;8103;51.340;12.326;2022-10-26T04:01:58;100432.22;;;10.90;nan
15998;BME280;8103;51.340;12.326;2022-10-26T04:04:28;100438.16;;;10.92;nan
15998;BME280;8103;51.340;12.326;2022-10-26T04:06:55;100436.53;;;10.91;nan
15998;BME280;8103;51.340;12.326;2022-10-26T04:09:22;100441.91;;;10.91;nan
15998;BME280;8103;51.340;12.326;2022-10-26T04:11:50;100442.94;;;10.90;nan
15998;BME280;8103;51.340;12.326;2022-10-26T04:14:17;100445.63;;;10.90;nan
15998;BME280;8103;51.340;12.326;2022-10-26T04:16:44;100437.59;;;10.90;nan
15998;BME280;8103;51.340;12.326;2022-10-26T04:19:11;100434.91;;;10.90;nan
15998;BME280;8103;51.340;12.326;2022-10-26T04:21:38;100437.59;;;10.90;nan
15998;BME280;8103;51.340;12.326;2022-10-26T04:24:05;100436.78;;;10.89;nan
15998;BME280;8103;51.340;12.326;2022-10-26T04:26:32;100441.91;;;10.91;nan
15998;BME280;8103;51.340;12.326;2022-10-26T04:28:59;100438.41;;;10.90;nan
15998;BME280;8103;51.340;12.326;2022-10-26T04:31:26;100442.41;;;10.88;nan
15998;BME280;8103;51.340;12.326;2022-10-26T04:33:53;100441.59;;;10.87;nan
15998;BME280;8103;51.340;12.326;2022-10-26T04:36:20;100437.03;;;10.88;nan
15998;BME280;8103;51.340;12.326;2022-10-26T04:38:49;100443.53;;;10.92;nan
15998;BME280;8103;51.340;12.326;2022-10-26T04:41:16;100436.53;;;10.91;nan
15998;BME280;8103;51.340;12.326;2022-10-26T04:43:43;100442.69;;;10.91;nan
15998;BME280;8103;51.340;12.326;2022-10-26T04:46:10;100436.06;;;10.94;nan
15998;BME280;8103;51.340;12.326;2022-10-26T04:48:42;100438.75;;;10.94;nan
15998;BME280;8103;51.340;12.326;2022-10-26T04:51:09;100440.91;;;10.97;nan
15998;BME280;8103;51.340;12.326;2022-10-26T04:53:36;100436.34;;;10.97;nan
15998;BME280;8103;51.340;12.326;2022-10-26T04:56:03;100435.06;;;11.00;nan
15998;BME280;8103;51.340;12.326;2022-10-26T04:58:30;100444.16;;;10.99;nan
15998;BME280;8103;51.340;12.326;2022-10-26T05:00:57;100434.00;;;11.01;nan
15998;BME280;8103;51.340;12.326;2022-10-26T05:03:24;100428.13;;;11.04;nan
15998;BME280;8103;51.340;12.326;2022-10-26T05:05:51;100424.63;;;11.03;nan
15998;BME280;8103;51.340;12.326;2022-10-26T05:08:18;100426.28;;;11.04;nan
15998;BME280;8103;51.340;12.326;2022-10-26T05:10:49;100434.03;;;11.06;nan
15998;BME280;8103;51.340;12.326;2022-10-26T05:13:16;100429.25;;;11.08;nan
15998;BME280;8103;51.340;12.326;2022-10-26T05:15:43;100430.31;;;11.07;nan
15998;BME280;8103;51.340;12.326;2022-10-26T05:18:10;100429.25;;;11.08;nan
15998;BME280;8103;51.340;12.326;2022-10-26T05:20:37;100428.75;;;11.11;nan
15998;BME280;8103;51.340;12.326;2022-10-26T05:23:09;100429.31;;;11.13;nan
15998;BME280;8103;51.340;12.326;2022-10-26T05:25:37;100429.88;;;11.15;nan
15998;BME280;8103;51.340;12.326;2022-10-26T05:28:08;100429.69;;;11.21;nan
15998;BME280;8103;51.340;12.326;2022-10-26T05:30:38;100429.94;;;11.20;nan
15998;BME280;8103;51.340;12.326;2022-10-26T05:33:05;100431.06;;;11.24;nan
15998;BME280;8103;51.340;12.326;2022-10-26T05:35:33;100430.56;;;11.27;nan
15998;BME280;8103;51.340;12.326;2022-10-26T05:38:11;100428.97;;;11.31;nan
15998;BME280;8103;51.340;12.326;2022-10-26T05:40:50;100427.44;;;11.35;nan
15998;BME280;8103;51.340;12.326;2022-10-26T05:43:19;100426.94;;;11.38;nan
15998;BME280;8103;51.340;12.326;2022-10-26T05:45:48;100430.50;;;11.43;nan
15998;BME280;8103;51.340;12.326;2022-10-26T05:48:16;100427.34;;;11.51;nan
15998;BME280;8103;51.340;12.326;2022-10-26T05:50:44;100433.84;;;11.55;nan
15998;BME280;8103;51.340;12.326;2022-10-26T05:53:11;100443.91;;;11.65;nan
15998;BME280;8103;51.340;12.326;2022-10-26T05:55:39;100443.41;;;11.68;nan
15998;BME280;8103;51.340;12.326;2022-10-26T05:58:11;100448.59;;;11.74;nan
15998;BME280;8103;51.340;12.326;2022-10-26T06:06:15;100448.25;;;11.71;nan
15998;BME280;8103;51.340;12.326;2022-10-26T06:08:42;100447.94;;;11.67;nan
15998;BME280;8103;51.340;12.326;2022-10-26T06:11:10;100453.31;;;11.67;nan
15998;BME280;8103;51.340;12.326;2022-10-26T06:13:37;100451.72;;;11.66;nan
15998;BME280;8103;51.340;12.326;2022-10-26T06:19:24;100445.00;;;11.69;nan
15998;BME280;8103;51.340;12.326;2022-10-26T06:22:31;100454.22;;;11.73;nan
15998;BME280;8103;51.340;12.326;2022-10-26T06:28:22;100452.22;;;11.90;nan
15998;BME280;8103;51.340;12.326;2022-10-26T06:30:51;100459.84;;;11.98;nan
15998;BME280;8103;51.340;12.326;2022-10-26T06:33:19;100454.81;;;12.06;nan
15998;BME280;8103;51.340;12.326;2022-10-26T06:38:49;100454.69;;;12.23;nan
15998;BME280;8103;51.340;12.326;2022-10-26T06:41:21;100459.00;;;12.24;nan
15998;BME280;8103;51.340;12.326;2022-10-26T06:43:49;100458.47;;;12.27;nan
15998;BME280;8103;51.340;12.326;2022-10-26T06:49:34;100464.97;;;12.31;nan
15998;BME280;8103;51.340;12.326;2022-10-26T06:52:15;100458.56;;;12.37;nan
15998;BME280;8103;51.340;12.326;2022-10-26T06:54:53;100462.41;;;12.46;nan
15998;BME280;8103;51.340;12.326;2022-10-26T06:57:33;100455.38;;;12.45;nan
15998;BME280;8103;51.340;12.326;2022-10-26T07:00:19;100456.78;;;12.52;nan
15998;BME280;8103;51.340;12.326;2022-10-26T07:02:48;100450.38;;;12.58;nan
15998;BME280;8103;51.340;12.326;2022-10-26T07:05:16;100444.47;;;12.61;nan
15998;BME280;8103;51.340;12.326;2022-10-26T07:07:46;100449.63;;;12.68;nan
15998;BME280;8103;51.340;12.326;2022-10-26T07:10:15;100453.16;;;12.73;nan
15998;BME280;8103;51.340;12.326;2022-10-26T07:12:43;100459.88;;;12.71;nan
15998;BME280;8103;51.340;12.326;2022-10-26T07:15:10;100451.28;;;12.74;nan
15998;BME280;8103;51.340;12.326;2022-10-26T07:17:46;100457.78;;;12.78;nan
15998;BME280;8103;51.340;12.326;2022-10-26T07:20:17;100455.13;;;12.83;nan
15998;BME280;8103;51.340;12.326;2022-10-26T07:22:53;100468.34;;;12.89;nan
15998;BME280;8103;51.340;12.326;2022-10-26T07:25:22;100465.94;;;12.93;nan
15998;BME280;8103;51.340;12.326;2022-10-26T07:27:50;100462.16;;;12.94;nan
15998;BME280;8103;51.340;12.326;2022-10-26T07:30:17;100463.59;;;13.07;nan
15998;BME280;8103;51.340;12.326;2022-10-26T07:32:44;100463.47;;;13.28;nan
15998;BME280;8103;51.340;12.326;2022-10-26T07:35:11;100462.97;;;13.46;nan
15998;BME280;8103;51.340;12.326;2022-10-26T07:37:39;100474.34;;;13.58;nan
15998;BME280;8103;51.340;12.326;2022-10-26T07:40:06;100462.28;;;13.81;nan
15998;BME280;8103;51.340;12.326;2022-10-26T07:42:33;100471.47;;;14.00;nan
15998;BME280;8103;51.340;12.326;2022-10-26T07:45:03;100475.00;;;14.20;nan
15998;BME280;8103;51.340;12.326;2022-10-26T07:47:31;100475.03;;;14.40;nan
15998;BME280;8103;51.340;12.326;2022-10-26T07:49:58;100470.97;;;14.58;nan
15998;BME280;8103;51.340;12.326;2022-10-26T07:52:25;100472.31;;;14.65;nan
15998;BME280;8103;51.340;12.326;2022-10-26T07:54:52;100470.19;;;14.67;nan
15998;BME280;8103;51.340;12.326;2022-10-26T07:57:27;100465.84;;;14.61;83.14
15998;BME280;8103;51.340;12.326;2022-10-26T07:59:55;100462.06;;;14.62;83.30
15998;BME280;8103;51.340;12.326;2022-10-26T08:02:23;100471.81;;;14.58;82.67
15998;BME280;8103;51.340;12.326;2022-10-26T08:04:50;100463.44;;;14.60;82.06
15998;BME280;8103;51.340;12.326;2022-10-26T08:07:20;100469.34;;;14.77;80.79
15998;BME280;8103;51.340;12.326;2022-10-26T08:09:47;100470.16;;;14.72;80.17
15998;BME280;8103;51.340;12.326;2022-10-26T08:12:14;100470.16;;;14.62;81.01
15998;BME280;8103;51.340;12.326;2022-10-26T08:14:44;100463.69;;;14.53;81.11
15998;BME280;8103;51.340;12.326;2022-10-26T08:17:12;100471.53;;;14.45;81.27
15998;BME280;8103;51.340;12.326;2022-10-26T08:19:39;100469.38;;;14.37;81.89
15998;BME280;8103;51.340;12.326;2022-10-26T08:22:06;100473.41;;;14.34;82.48
15998;BME280;8103;51.340;12.326;2022-10-26T08:24:33;100472.59;;;14.29;82.79
15998;BME280;8103;51.340;12.326;2022-10-26T08:27:00;100473.44;;;14.39;82.91
15998;BME280;8103;51.340;12.326;2022-10-26T08:29:27;100475.56;;;14.47;82.67
15998;BME280;8103;51.340;12.326;2022-10-26T08:31:54;100485.03;;;14.60;82.48
15998;BME280;8103;51.340;12.326;2022-10-26T08:34:22;100478.78;;;14.74;81.38
15998;BME280;8103;51.340;12.326;2022-10-26T08:36:49;100478.22;;;14.98;80.54
15998;BME280;8103;51.340;12.326;2022-10-26T08:39:16;100485.41;;;15.22;79.88
15998;BME280;8103;51.340;12.326;2022-10-26T08:41:46;100476.97;;;15.59;77.79
15998;BME280;8103;51.340;12.326;2022-10-26T08:47:10;100490.06;;;16.24;74.93
15998;BME280;8103;51.340;12.326;2022-10-26T08:55:20;100472.13;;;17.42;70.58
15998;BME280;8103;51.340;12.326;2022-10-26T08:57:52;100475.72;;;17.98;68.36
15998;BME280;8103;51.340;12.326;2022-10-26T09:00:22;100471.56;;;19.16;64.08
15998;BME280;8103;51.340;12.326;2022-10-26T09:02:52;100474.84;;;19.94;60.32
15998;BME280;8103;51.340;12.326;2022-10-26T09:05:34;100475.91;;;21.25;57.79
15998;BME280;8103;51.340;12.326;2022-10-26T09:08:23;100474.00;;;23.80;50.26
15998;BME280;8103;51.340;12.326;2022-10-26T09:11:39;100476.13;;;25.01;44.88
15998;BME280;8103;51.340;12.326;2022-10-26T09:14:18;100476.78;;;25.43;43.96
15998;BME280;8103;51.340;12.326;2022-10-26T09:17:41;100481.56;;;26.49;41.67
15998;BME280;8103;51.340;12.326;2022-10-26T09:20:41;100480.53;;;27.12;39.41
15998;BME280;8103;51.340;12.326;2022-10-26T09:23:47;100480.25;;;28.33;36.03
15998;BME280;8103;51.340;12.326;2022-10-26T09:26:52;66331.75;;;-142.58;100.00
15998;BME280;8103;51.340;12.326;2022-10-26T09:29:28;100490.22;;;30.54;nan
15998;BME280;8103;51.340;12.326;2022-10-26T09:32:00;100493.63;;;30.41;nan
15998;BME280;8103;51.340;12.326;2022-10-26T09:34:38;100491.88;;;30.96;nan
15998;BME280;8103;51.340;12.326;2022-10-26T09:37:26;100497.28;;;32.37;nan
15998;BME280;8103;51.340;12.326;2022-10-26T09:40:11;100503.44;;;32.95;nan
15998;BME280;8103;51.340;12.326;2022-10-26T09:42:54;100497.53;;;32.11;nan
15998;BME280;8103;51.340;12.326;2022-10-26T09:45:38;100494.88;;;31.71;nan
15998;BME280;8103;51.340;12.326;2022-10-26T09:48:24;100504.72;;;29.14;nan
15998;BME280;8103;51.340;12.326;2022-10-26T09:50:52;100498.94;;;27.86;nan
15998;BME280;8103;51.340;12.326;2022-10-26T09:53:20;100499.97;;;26.88;nan
15998;BME280;8103;51.340;12.326;2022-10-26T09:55:50;100501.25;;;26.91;nan
15998;BME280;8103;51.340;12.326;2022-10-26T09:58:25;100500.50;;;27.87;nan
15998;BME280;8103;51.340;12.326;2022-10-26T10:00:53;100509.47;;;27.99;nan
15998;BME280;8103;51.340;12.326;2022-10-26T10:03:29;100504.53;;;27.74;nan
15998;BME280;8103;51.340;12.326;2022-10-26T10:06:19;100507.56;;;27.07;nan
15998;BME280;8103;51.340;12.326;2022-10-26T10:09:14;100513.78;;;27.04;nan
15998;BME280;8103;51.340;12.326;2022-10-26T10:11:56;100504.19;;;26.42;nan
15998;BME280;8103;51.340;12.326;2022-10-26T10:14:29;100511.22;;;25.64;nan
15998;BME280;8103;51.340;12.326;2022-10-26T10:17:06;100510.75;;;24.61;nan
15998;BME280;8103;51.340;12.326;2022-10-26T10:19:37;100511.47;;;23.88;nan
15998;BME280;8103;51.340;12.326;2022-10-26T10:24:42;100521.75;;;22.35;nan
15998;BME280;8103;51.340;12.326;2022-10-26T10:27:18;100526.22;;;21.97;nan
15998;BME280;8103;51.340;12.326;2022-10-26T10:29:49;100508.31;;;21.66;nan
15998;BME280;8103;51.340;12.326;2022-10-26T10:32:19;100515.91;;;21.38;nan
15998;BME280;8103;51.340;12.326;2022-10-26T10:34:48;100522.88;;;21.14;nan
15998;BME280;8103;51.340;12.326;2022-10-26T10:37:35;100523.44;;;20.80;nan
15998;BME280;8103;51.340;12.326;2022-10-26T10:40:29;100523.97;;;20.60;nan
15998;BME280;8103;51.340;12.326;2022-10-26T10:43:12;100524.56;;;20.35;nan
15998;BME280;8103;51.340;12.326;2022-10-26T10:45:49;100521.47;;;20.28;nan
15998;BME280;8103;51.340;12.326;2022-10-26T10:48:22;100521.59;;;20.45;nan
15998;BME280;8103;51.340;12.326;2022-10-26T10:51:04;100529.16;;;20.70;nan
15998;BME280;8103;51.340;12.326;2022-10-26T10:53:46;100522.19;;;21.08;nan
15998;BME280;8103;51.340;12.326;2022-10-26T10:56:40;100520.78;;;21.50;nan
15998;BME280;8103;51.340;12.326;2022-10-26T11:02:27;100522.88;;;22.43;nan
15998;BME280;8103;51.340;12.326;2022-10-26T11:05:37;100518.91;;;23.87;nan
15998;BME280;8103;51.340;12.326;2022-10-26T11:10:47;100528.84;;;23.92;nan
15998;BME280;8103;51.340;12.326;2022-10-26T11:13:49;100524.47;;;23.41;nan
15998;BME280;8103;51.340;12.326;2022-10-26T11:16:43;100520.47;;;23.22;nan
15998;BME280;8103;51.340;12.326;2022-10-26T11:19:22;100520.75;;;22.82;nan
15998;BME280;8103;51.340;12.326;2022-10-26T11:21:53;100524.03;;;22.50;nan
15998;BME280;8103;51.340;12.326;2022-10-26T11:24:48;100523.19;;;22.41;nan
15998;BME280;8103;51.340;12.326;2022-10-26T11:27:45;100518.84;;;22.23;nan
15998;BME280;8103;51.340;12.326;2022-10-26T11:30:21;100518.38;;;22.21;nan
15998;BME280;8103;51.340;12.326;2022-10-26T11:33:22;100515.63;;;22.55;nan
15998;BME280;8103;51.340;12.326;2022-10-26T11:36:04;100515.94;;;22.79;nan
15998;BME280;8103;51.340;12.326;2022-10-26T11:38:53;100510.78;;;22.86;nan
15998;BME280;8103;51.340;12.326;2022-10-26T11:41:39;100511.47;;;22.66;nan
15998;BME280;8103;51.340;12.326;2022-10-26T11:44:14;100506.31;;;22.22;nan
15998;BME280;8103;51.340;12.326;2022-10-26T11:46:54;100507.41;;;22.04;nan
15998;BME280;8103;51.340;12.326;2022-10-26T11:50:01;100506.53;;;21.61;nan
15998;BME280;8103;51.340;12.326;2022-10-26T11:52:42;100507.50;;;21.65;nan
15998;BME280;8103;51.340;12.326;2022-10-26T11:55:11;100509.28;;;21.70;nan
15998;BME280;8103;51.340;12.326;2022-10-26T11:57:40;100511.00;;;21.57;nan
15998;BME280;8103;51.340;12.326;2022-10-26T12:00:16;100519.13;;;21.40;nan
15998;BME280;8103;51.340;12.326;2022-10-26T12:03:18;100524.63;;;21.57;nan
15998;BME280;8103;51.340;12.326;2022-10-26T12:05:50;100525.63;;;21.61;nan
15998;BME280;8103;51.340;12.326;2022-10-26T12:08:24;100532.56;;;21.67;nan
15998;BME280;8103;51.340;12.326;2022-10-26T12:14:17;100520.38;;;20.95;nan
15998;BME280;8103;51.340;12.326;2022-10-26T12:17:06;100525.31;;;20.71;nan
15998;BME280;8103;51.340;12.326;2022-10-26T12:22:42;100532.31;;;20.41;nan
15998;BME280;8103;51.340;12.326;2022-10-26T12:35:41;100522.72;;;19.95;nan
15998;BME280;8103;51.340;12.326;2022-10-26T12:43:38;100533.53;;;19.73;nan
15998;BME280;8103;51.340;12.326;2022-10-26T12:48:45;100523.94;;;20.02;nan
15998;BME280;8103;51.340;12.326;2022-10-26T12:54:39;100511.81;;;21.66;nan
15998;BME280;8103;51.340;12.326;2022-10-26T12:57:36;100506.31;;;22.05;nan
15998;BME280;8103;51.340;12.326;2022-10-26T13:00:17;100497.59;;;22.88;nan
15998;BME280;8103;51.340;12.326;2022-10-26T13:03:13;100489.44;;;25.23;nan
15998;BME280;8103;51.340;12.326;2022-10-26T13:08:54;100494.38;;;27.78;nan
15998;BME280;8103;51.340;12.326;2022-10-26T13:11:34;100499.66;;;31.70;nan
15998;BME280;8103;51.340;12.326;2022-10-26T13:14:13;100508.13;;;34.21;nan
15998;BME280;8103;51.340;12.326;2022-10-26T13:16:45;100507.19;;;34.59;nan
15998;BME280;8103;51.340;12.326;2022-10-26T13:19:25;100518.50;;;32.94;nan
15998;BME280;8103;51.340;12.326;2022-10-26T13:21:59;100515.63;;;30.30;nan
15998;BME280;8103;51.340;12.326;2022-10-26T13:24:30;100516.22;;;28.02;nan
15998;BME280;8103;51.340;12.326;2022-10-26T13:32:41;100509.13;;;23.78;nan
15998;BME280;8103;51.340;12.326;2022-10-26T13:35:14;100504.94;;;22.96;nan
15998;BME280;8103;51.340;12.326;2022-10-26T13:37:47;100502.47;;;22.40;nan
15998;BME280;8103;51.340;12.326;2022-10-26T13:40:23;100503.53;;;21.80;nan
15998;BME280;8103;51.340;12.326;2022-10-26T13:43:03;100504.91;;;21.60;nan
15998;BME280;8103;51.340;12.326;2022-10-26T13:45:52;100507.31;;;21.14;nan
15998;BME280;8103;51.340;12.326;2022-10-26T13:48:36;100518.19;;;20.83;nan
15998;BME280;8103;51.340;12.326;2022-10-26T13:51:25;100519.50;;;20.64;nan
15998;BME280;8103;51.340;12.326;2022-10-26T13:54:25;100527.28;;;20.35;nan
15998;BME280;8103;51.340;12.326;2022-10-26T13:57:18;100531.19;;;20.07;nan
15998;BME280;8103;51.340;12.326;2022-10-26T13:59:47;100545.63;;;19.94;nan
15998;BME280;8103;51.340;12.326;2022-10-26T14:04:53;100539.13;;;19.68;nan
15998;BME280;8103;51.340;12.326;2022-10-26T14:07:55;100540.72;;;19.55;nan
15998;BME280;8103;51.340;12.326;2022-10-26T14:10:36;100542.72;;;19.50;nan
15998;BME280;8103;51.340;12.326;2022-10-26T14:13:13;100538.41;;;19.49;nan
15998;BME280;8103;51.340;12.326;2022-10-26T14:15:45;100558.44;;;19.53;nan
15998;BME280;8103;51.340;12.326;2022-10-26T14:18:23;100558.06;;;19.46;nan
15998;BME280;8103;51.340;12.326;2022-10-26T14:21:19;100567.13;;;19.41;nan
15998;BME280;8103;51.340;12.326;2022-10-26T14:23:56;100565.19;;;19.42;nan
15998;BME280;8103;51.340;12.326;2022-10-26T14:26:39;100564.50;;;19.50;nan
15998;BME280;8103;51.340;12.326;2022-10-26T14:29:24;100568.53;;;19.52;nan
15998;BME280;8103;51.340;12.326;2022-10-26T14:31:52;100567.72;;;19.52;nan
15998;BME280;8103;51.340;12.326;2022-10-26T14:34:21;100565.78;;;19.52;nan
15998;BME280;8103;51.340;12.326;2022-10-26T14:37:01;100552.81;;;19.49;nan
15998;BME280;8103;51.340;12.326;2022-10-26T14:39:41;100560.97;;;19.63;nan
15998;BME280;8103;51.340;12.326;2022-10-26T14:42:31;100560.88;;;19.68;nan
15998;BME280;8103;51.340;12.326;2022-10-26T14:45:00;100562.09;;;19.62;nan
15998;BME280;8103;51.340;12.326;2022-10-26T14:47:34;100572.13;;;19.48;nan
15998;BME280;8103;51.340;12.326;2022-10-26T14:50:02;100560.06;;;19.27;nan
15998;BME280;8103;51.340;12.326;2022-10-26T14:52:33;100558.56;;;19.16;nan
15998;BME280;8103;51.340;12.326;2022-10-26T14:55:14;100565.00;;;19.06;nan
15998;BME280;8103;51.340;12.326;2022-10-26T14:57:45;100562.56;;;18.91;nan
15998;BME280;8103;51.340;12.326;2022-10-26T15:00:23;100561.63;;;18.82;nan
15998;BME280;8103;51.340;12.326;2022-10-26T15:02:57;100560.38;;;18.74;nan
15998;BME280;8103;51.340;12.326;2022-10-26T15:05:29;100558.47;;;18.75;nan
15998;BME280;8103;51.340;12.326;2022-10-26T15:07:59;100558.34;;;18.66;nan
15998;BME280;8103;51.340;12.326;2022-10-26T15:13:27;100560.47;;;18.51;nan
15998;BME280;8103;51.340;12.326;2022-10-26T15:16:06;100561.38;;;18.46;nan
15998;BME280;8103;51.340;12.326;2022-10-26T15:18:37;100565.09;;;18.32;nan
15998;BME280;8103;51.340;12.326;2022-10-26T15:21:37;100559.56;;;18.18;nan
15998;BME280;8103;51.340;12.326;2022-10-26T15:26:46;100557.09;;;18.03;nan